Time;durP1;ratioP1;P1;durP2;ratioP2;P2;SDS_P1;SDS_P2;PMS_P1;PMS_P2;Temp;Humidity;BMP_temperature;BMP_pressure;BME280_temperature;BME280_humidity;BME280_pressure;Samples;Min_cycle;Max_cycle;Signal;HPM_P1;HPM_P2
2020/12/22 00:01:10;;;;;;;3.40;2.50;;;;;;;9.46;100.00;96261.28;5095973;28;20496;-86
2020/12/22 00:03:36;;;;;;;2.53;2.33;;;;;;;9.46;100.00;96257.91;5096056;28;20422;-85
2020/12/22 00:06:02;;;;;;;2.70;2.40;;;;;;;9.46;100.00;96261.28;5096034;28;20993;-86
2020/12/22 00:08:29;;;;;;;3.20;2.60;;;;;;;9.45;100.00;96267.94;5096274;28;20436;-86
2020/12/22 00:10:56;;;;;;;2.80;2.27;;;;;;;9.50;100.00;96263.63;5095782;28;20467;-86
2020/12/22 00:13:22;;;;;;;2.83;2.47;;;;;;;9.50;100.00;96277.09;5095991;28;20775;-87
2020/12/22 00:15:49;;;;;;;7.60;3.23;;;;;;;9.46;100.00;96276.75;5095645;28;20418;-87
2020/12/22 00:18:16;;;;;;;4.17;2.60;;;;;;;9.53;100.00;96279.44;5095862;28;20432;-87
2020/12/22 00:20:42;;;;;;;2.60;2.23;;;;;;;9.56;100.00;96274.94;5095147;28;20600;-87
2020/12/22 00:23:09;;;;;;;3.23;2.50;;;;;;;9.58;100.00;96267.06;5095966;28;20788;-87
2020/12/22 00:25:43;;;;;;;3.37;2.40;;;;;;;9.59;100.00;96261.13;5096093;28;20500;-87
2020/12/22 00:28:09;;;;;;;2.87;2.00;;;;;;;9.62;100.00;96252.00;5095943;28;20411;-89
2020/12/22 00:30:36;;;;;;;3.57;2.23;;;;;;;9.67;100.00;96243.03;5096569;28;20431;-88
2020/12/22 00:33:03;;;;;;;2.07;1.87;;;;;;;9.63;100.00;96239.97;5096560;28;20490;-88
2020/12/22 00:35:29;;;;;;;2.30;2.03;;;;;;;9.59;100.00;96236.91;5096630;28;20430;-88
2020/12/22 00:37:56;;;;;;;2.47;2.03;;;;;;;9.56;100.00;96240.66;5096181;28;20448;-87
2020/12/22 00:40:22;;;;;;;2.60;1.67;;;;;;;9.53;100.00;96247.13;5096097;28;20462;-88
2020/12/22 00:42:49;;;;;;;2.53;2.00;;;;;;;9.54;100.00;96240.50;5096431;28;20424;-88
2020/12/22 00:45:15;;;;;;;2.80;2.27;;;;;;;9.54;100.00;96240.50;5096308;28;20423;-88
2020/12/22 00:47:42;;;;;;;4.33;2.50;;;;;;;9.60;100.00;96235.66;5097199;28;20421;-87
2020/12/22 00:50:08;;;;;;;4.90;2.90;;;;;;;9.58;100.00;96242.84;5098218;28;20467;-88
2020/12/22 00:52:35;;;;;;;2.30;1.90;;;;;;;9.66;100.00;96252.38;5098849;28;20848;-88
2020/12/22 00:55:01;;;;;;;1.67;1.50;;;;;;;9.66;100.00;96252.38;5110217;28;20432;-84
2020/12/22 00:57:27;;;;;;;4.47;1.80;;;;;;;9.79;100.00;96239.97;5115315;28;20495;-87
2020/12/22 00:59:55;;;;;;;2.80;1.73;;;;;;;9.77;100.00;96247.91;5096842;28;20931;-87
2020/12/22 01:02:21;;;;;;;2.37;1.43;;;;;;;9.77;100.00;96250.59;5098776;28;20834;-83
2020/12/22 01:04:49;;;;;;;2.90;1.97;;;;;;;9.76;100.00;96266.03;5096592;28;20781;-84
2020/12/22 01:07:16;;;;;;;2.00;1.30;;;;;;;9.79;100.00;96278.44;5096164;28;20432;-84
2020/12/22 01:09:42;;;;;;;3.50;1.63;;;;;;;9.88;100.00;96283.28;5095932;28;20520;-84
2020/12/22 01:12:09;;;;;;;3.33;1.50;;;;;;;9.89;100.00;96289.41;5095737;28;20431;-84
2020/12/22 01:14:35;;;;;;;2.30;1.63;;;;;;;9.96;100.00;96278.63;5095928;28;20510;-83
2020/12/22 01:17:02;;;;;;;1.80;1.60;;;;;;;9.93;100.00;96287.78;5095816;28;20448;-84
2020/12/22 01:19:29;;;;;;;3.03;1.50;;;;;;;9.99;100.00;96290.31;5095307;28;20461;-84
2020/12/22 01:21:56;;;;;;;1.83;1.27;;;;;;;9.97;100.00;96284.72;5095335;28;20495;-83
2020/12/22 01:24:23;;;;;;;8.40;1.53;;;;;;;9.99;100.00;96279.53;5095551;28;20431;-83
2020/12/22 01:26:49;;;;;;;1.10;1.00;;;;;;;10.02;100.00;96284.56;5095455;28;20427;-83
2020/12/22 01:29:16;;;;;;;1.50;1.20;;;;;;;10.12;100.00;96277.38;5095284;28;20422;-84
2020/12/22 01:31:42;;;;;;;1.60;1.20;;;;;;;10.17;100.00;96290.00;5095364;28;20979;-83
2020/12/22 01:34:10;;;;;;;4.17;1.20;;;;;;;10.07;100.00;96280.97;5095960;28;20770;-83
2020/12/22 01:36:36;;;;;;;1.70;1.30;;;;;;;10.08;100.00;96279.00;5095262;28;20419;-83
2020/12/22 01:39:03;;;;;;;1.27;1.17;;;;;;;10.22;100.00;96280.28;5095785;28;20423;-83
2020/12/22 01:41:32;;;;;;;1.30;1.20;;;;;;;10.28;100.00;96277.41;5095364;28;20462;-84
2020/12/22 01:44:05;;;;;;;1.10;1.00;;;;;;;10.31;100.00;96285.16;5095198;28;20947;-84
2020/12/22 01:46:34;;;;;;;1.80;1.30;;;;;;;10.25;100.00;96292.69;5096997;28;20490;-84
2020/12/22 01:49:01;;;;;;;1.40;1.23;;;;;;;10.30;100.00;96288.38;5095244;28;20443;-83
2020/12/22 01:51:29;;;;;;;1.37;1.20;;;;;;;10.32;100.00;96286.59;5094759;28;20435;-84
2020/12/22 01:53:56;;;;;;;1.63;0.83;;;;;;;10.35;100.00;96280.13;5095370;28;20505;-83
2020/12/22 01:56:23;;;;;;;2.60;1.17;;;;;;;10.29;100.00;96278.84;5094792;28;20433;-84
2020/12/22 01:58:49;;;;;;;2.17;1.13;;;;;;;10.27;100.00;96276.00;5094662;28;20894;-84
2020/12/22 02:01:16;;;;;;;1.00;0.87;;;;;;;10.32;100.00;96275.81;5093979;28;20955;-85
2020/12/22 02:03:43;;;;;;;1.27;0.70;;;;;;;10.31;100.00;96282.44;5094580;28;20419;-85
2020/12/22 02:06:09;;;;;;;1.67;0.97;;;;;;;10.41;100.00;96294.13;5094245;28;20505;-85
2020/12/22 02:08:36;;;;;;;0.77;0.60;;;;;;;10.44;100.00;96289.63;5097821;28;20445;-86
2020/12/22 02:11:03;;;;;;;1.00;0.60;;;;;;;10.49;100.00;96302.97;5097616;28;20461;-85
2020/12/22 02:13:29;;;;;;;0.53;0.50;;;;;;;10.55;100.00;96302.78;5097882;28;20431;-84
2020/12/22 02:15:56;;;;;;;0.80;0.70;;;;;;;10.62;100.00;96300.03;5097521;28;20444;-85
2020/12/22 02:18:23;;;;;;;0.70;0.60;;;;;;;10.63;100.00;96290.69;5098307;28;20430;-85
2020/12/22 02:20:49;;;;;;;1.17;0.70;;;;;;;10.58;100.00;96282.81;5097621;28;20586;-84
2020/12/22 02:23:16;;;;;;;0.60;0.60;;;;;;;10.54;100.00;96272.38;5097500;28;20481;-85
2020/12/22 02:25:49;;;;;;;0.60;0.40;;;;;;;10.65;100.00;96285.47;5097729;28;20502;-84
2020/12/22 02:28:17;;;;;;;0.60;0.40;;;;;;;10.65;100.00;96288.16;5097354;28;20439;-85
2020/12/22 02:30:43;;;;;;;0.77;0.47;;;;;;;10.67;100.00;96284.94;5097381;28;20460;-85
2020/12/22 02:33:11;;;;;;;0.77;0.43;;;;;;;10.68;100.00;96281.69;5097676;28;20470;-85
2020/12/22 02:35:37;;;;;;;0.60;0.60;;;;;;;10.70;100.00;96256.88;5097657;28;20463;-86
2020/12/22 02:38:03;;;;;;;2.10;0.53;;;;;;;10.69;100.00;96253.44;5118157;28;20430;-86
2020/12/22 02:40:31;;;;;;;1.00;0.40;;;;;;;10.75;100.00;96245.88;5121617;28;20460;-87
2020/12/22 02:43:09;;;;;;;0.60;0.40;;;;;;;10.74;100.00;96249.84;5121761;28;20446;-87
2020/12/22 02:45:35;;;;;;;0.70;0.40;;;;;;;10.70;100.00;96257.59;5119701;28;20416;-85
2020/12/22 02:48:02;;;;;;;0.60;0.40;;;;;;;10.73;100.00;96251.13;5110433;28;20433;-85
2020/12/22 02:50:28;;;;;;;0.93;0.50;;;;;;;10.76;100.00;96249.31;5097731;28;20469;-86
2020/12/22 02:52:54;;;;;;;0.50;0.40;;;;;;;10.84;100.00;96243.91;5097388;28;20432;-86
2020/12/22 02:55:21;;;;;;;1.13;0.50;;;;;;;10.77;100.00;96246.03;5097590;28;20490;-88
2020/12/22 02:57:48;;;;;;;0.50;0.40;;;;;;;10.83;100.00;96245.16;5097813;28;20483;-88
2020/12/22 03:00:14;;;;;;;0.57;0.47;;;;;;;10.82;100.00;96236.34;5097213;28;20440;-87
2020/12/22 03:02:41;;;;;;;0.77;0.30;;;;;;;10.86;100.00;96233.25;5097979;28;20440;-89
2020/12/22 03:05:07;;;;;;;1.00;0.50;;;;;;;10.89;100.00;96218.69;5097690;28;20414;-88
2020/12/22 03:07:34;;;;;;;0.50;0.40;;;;;;;10.84;100.00;96231.09;5099231;28;20464;-88
2020/12/22 03:10:00;;;;;;;0.50;0.40;;;;;;;10.87;100.00;96232.72;5102548;28;20444;-87
2020/12/22 03:12:26;;;;;;;0.50;0.30;;;;;;;10.86;100.00;96231.28;5103007;28;20414;-88
2020/12/22 03:14:54;;;;;;;1.97;0.47;;;;;;;10.89;100.00;96238.28;5097601;28;20435;-88
2020/12/22 03:17:20;;;;;;;1.20;0.40;;;;;;;10.87;100.00;96242.81;5097415;28;20407;-88
2020/12/22 03:19:46;;;;;;;0.80;0.50;;;;;;;10.81;100.00;96239.59;5097430;28;20445;-88
2020/12/22 03:22:13;;;;;;;0.80;0.57;;;;;;;10.96;100.00;96239.53;5097377;28;20467;-88
2020/12/22 03:24:39;;;;;;;1.90;0.50;;;;;;;11.00;100.00;96239.88;5096974;28;20422;-87
2020/12/22 03:27:05;;;;;;;0.50;0.40;;;;;;;10.96;100.00;96239.53;5096793;28;20501;-87
2020/12/22 03:29:32;;;;;;;0.53;0.47;;;;;;;10.96;100.00;96234.84;5096300;28;20449;-87
2020/12/22 03:31:59;;;;;;;4.00;0.60;;;;;;;10.96;100.00;96236.84;5096489;28;20500;-87
2020/12/22 03:34:25;;;;;;;1.90;0.40;;;;;;;10.97;100.00;96233.56;5096373;28;20432;-87
2020/12/22 03:36:52;;;;;;;0.67;0.50;;;;;;;11.02;100.00;96221.16;5096162;28;20415;-87
2020/12/22 03:39:18;;;;;;;0.50;0.40;;;;;;;10.95;100.00;96222.63;5096136;28;20933;-85
2020/12/22 03:41:45;;;;;;;0.53;0.43;;;;;;;10.95;100.00;96219.19;5096965;28;20543;-85
2020/12/22 03:44:12;;;;;;;0.50;0.40;;;;;;;10.93;100.00;96214.31;5098572;28;20419;-84
2020/12/22 03:46:38;;;;;;;1.53;0.40;;;;;;;11.02;100.00;96215.75;5099562;28;20426;-84
2020/12/22 03:49:06;;;;;;;0.60;0.40;;;;;;;10.98;100.00;96218.09;5099408;28;20455;-83
2020/12/22 03:51:32;;;;;;;0.60;0.40;;;;;;;10.94;100.00;96220.44;5099060;28;21041;-84
2020/12/22 03:53:59;;;;;;;0.50;0.40;;;;;;;10.95;100.00;96238.81;5097925;28;20448;-87
2020/12/22 03:56:26;;;;;;;0.50;0.40;;;;;;;10.95;100.00;96248.88;5095468;28;20527;-87
2020/12/22 03:58:52;;;;;;;0.50;0.40;;;;;;;10.93;100.00;96248.72;5095605;28;20440;-87
2020/12/22 04:01:19;;;;;;;0.80;0.47;;;;;;;10.93;100.00;96257.53;5095346;28;20463;-87
2020/12/22 04:03:45;;;;;;;0.57;0.40;;;;;;;10.95;100.00;96262.38;5095582;28;20494;-87
2020/12/22 04:06:13;;;;;;;0.50;0.30;;;;;;;10.91;100.00;96243.13;5095704;28;20440;-87
2020/12/22 04:08:39;;;;;;;0.70;0.40;;;;;;;10.94;100.00;96242.03;5095976;28;20812;-87
2020/12/22 04:11:05;;;;;;;0.60;0.30;;;;;;;10.91;100.00;96235.75;5095389;28;20424;-86
2020/12/22 04:13:31;;;;;;;0.60;0.40;;;;;;;10.90;100.00;96244.41;5095898;28;20453;-86
2020/12/22 04:15:59;;;;;;;0.43;0.30;;;;;;;10.90;100.00;96253.22;5095807;28;20411;-86
2020/12/22 04:18:25;;;;;;;0.70;0.67;;;;;;;10.97;100.00;96254.44;5095649;28;20437;-86
2020/12/22 04:20:51;;;;;;;0.50;0.37;;;;;;;10.98;100.00;96250.50;5094959;28;20484;-86
2020/12/22 04:23:18;;;;;;;0.93;0.30;;;;;;;10.96;100.00;96247.63;5095813;28;20452;-87
2020/12/22 04:25:45;;;;;;;1.50;0.30;;;;;;;10.91;100.00;96251.22;5095265;28;20416;-86
2020/12/22 04:28:11;;;;;;;0.50;0.40;;;;;;;10.90;100.00;96253.22;5095860;28;20419;-87
2020/12/22 04:30:37;;;;;;;2.80;0.50;;;;;;;10.94;100.00;96252.84;5094697;28;20435;-86
2020/12/22 04:33:04;;;;;;;0.60;0.40;;;;;;;11.03;100.00;96257.66;5095043;28;20436;-86
2020/12/22 04:35:30;;;;;;;0.70;0.40;;;;;;;11.05;100.00;96252.47;5095591;28;20436;-87
2020/12/22 04:37:56;;;;;;;0.53;0.30;;;;;;;11.06;100.00;96251.19;5095695;28;20440;-86
2020/12/22 04:40:23;;;;;;;1.33;0.30;;;;;;;11.07;100.00;96249.94;5094931;28;20469;-85
2020/12/22 04:42:50;;;;;;;1.57;0.40;;;;;;;11.09;100.00;96253.50;5094941;28;20792;-85
2020/12/22 04:45:17;;;;;;;1.87;0.40;;;;;;;11.11;100.00;96255.69;5094714;28;20426;-85
2020/12/22 04:47:47;;;;;;;0.90;0.40;;;;;;;11.08;100.00;96262.91;5094851;28;20411;-85
2020/12/22 04:50:15;;;;;;;0.93;0.30;;;;;;;11.12;100.00;96267.94;5095196;28;20509;-85
2020/12/22 04:52:41;;;;;;;0.40;0.30;;;;;;;11.11;100.00;96261.81;5094800;28;20425;-85
2020/12/22 04:55:08;;;;;;;0.47;0.30;;;;;;;11.19;100.00;96256.34;5094644;28;20409;-85
2020/12/22 04:57:42;;;;;;;1.87;0.37;;;;;;;11.12;100.00;96252.41;5094933;28;20422;-85
2020/12/22 05:00:08;;;;;;;0.40;0.30;;;;;;;11.14;100.00;96246.50;5094401;28;20872;-85
2020/12/22 05:02:41;;;;;;;4.00;0.30;;;;;;;11.19;100.00;96240.16;5094688;28;20462;-85
2020/12/22 05:05:07;;;;;;;0.50;0.30;;;;;;;11.11;100.00;96228.69;5094890;28;20461;-85
2020/12/22 05:07:34;;;;;;;0.47;0.33;;;;;;;11.12;100.00;96243.63;5094808;28;20408;-85
2020/12/22 05:10:05;;;;;;;0.73;0.40;;;;;;;11.17;100.00;96243.41;5094949;28;20448;-86
2020/12/22 05:12:32;;;;;;;0.77;0.40;;;;;;;11.13;100.00;96240.38;5095506;28;20838;-85
2020/12/22 05:15:01;;;;;;;9.80;0.93;;;;;;;11.14;100.00;96232.97;5095125;28;20535;-85
2020/12/22 05:17:28;;;;;;;0.90;0.40;;;;;;;11.10;100.00;96246.84;5095163;28;20440;-86
2020/12/22 05:19:54;;;;;;;0.90;0.40;;;;;;;11.10;100.00;96254.22;5094930;28;20438;-86
2020/12/22 05:22:22;;;;;;;0.50;0.37;;;;;;;11.14;100.00;96260.00;5094626;28;20628;-85
2020/12/22 05:24:50;;;;;;;0.57;0.43;;;;;;;11.13;100.00;96269.34;5095096;28;20923;-85
2020/12/22 05:27:19;;;;;;;1.90;0.50;;;;;;;11.13;100.00;96263.94;5094770;28;20403;-85
2020/12/22 05:29:46;;;;;;;0.77;0.40;;;;;;;11.11;100.00;96274.59;5094707;28;20452;-85
2020/12/22 05:32:17;;;;;;;0.63;0.40;;;;;;;11.17;100.00;96270.41;5094301;28;20460;-86
2020/12/22 05:34:44;;;;;;;0.70;0.40;;;;;;;11.13;100.00;96264.66;5095422;28;20436;-86
2020/12/22 05:37:10;;;;;;;0.80;0.40;;;;;;;11.22;100.00;96257.97;5108363;28;20409;-88
2020/12/22 05:39:38;;;;;;;3.70;0.33;;;;;;;11.25;100.00;96257.59;5117275;28;20420;-87
2020/12/22 05:42:13;;;;;;;0.50;0.30;;;;;;;11.24;100.00;96252.75;5119861;28;20482;-83
2020/12/22 05:44:45;;;;;;;0.50;0.30;;;;;;;11.23;100.00;96254.00;5122430;28;20379;-84
2020/12/22 05:47:15;;;;;;;1.43;0.40;;;;;;;11.22;100.00;96242.47;5122217;28;20429;-85
2020/12/22 05:49:50;;;;;;;0.50;0.30;;;;;;;11.24;100.00;96260.84;5120778;28;20422;-86
2020/12/22 05:52:16;;;;;;;0.50;0.40;;;;;;;11.31;100.00;96254.00;5098947;28;20435;-87
2020/12/22 05:54:46;;;;;;;0.40;0.30;;;;;;;11.27;100.00;96259.75;5099239;28;20418;-87
2020/12/22 05:57:12;;;;;;;0.60;0.40;;;;;;;11.25;100.00;96263.00;5099294;28;20794;-88
2020/12/22 05:59:39;;;;;;;0.40;0.30;;;;;;;11.31;100.00;96262.78;5099082;28;20414;-89
2020/12/22 06:02:06;;;;;;;1.57;0.30;;;;;;;11.39;100.00;96262.75;5099331;28;20459;-88
2020/12/22 06:04:34;;;;;;;0.50;0.30;;;;;;;11.36;100.00;96259.19;5099449;28;20423;-88
2020/12/22 06:07:01;;;;;;;0.50;0.40;;;;;;;11.36;100.00;96269.97;5100000;28;20517;-88
2020/12/22 06:09:29;;;;;;;0.50;0.30;;;;;;;11.38;100.00;96259.34;5099314;28;20447;-86
2020/12/22 06:12:00;;;;;;;0.50;0.33;;;;;;;11.40;100.00;96277.72;5099096;28;20472;-88
2020/12/22 06:14:32;;;;;;;0.93;0.40;;;;;;;11.45;100.00;96274.81;5099584;28;20387;-88
2020/12/22 06:17:05;;;;;;;2.73;0.50;;;;;;;11.47;100.00;96266.84;5098733;28;20405;-87
2020/12/22 06:19:36;;;;;;;0.70;0.50;;;;;;;11.51;100.00;96272.63;5098207;28;20789;-86
2020/12/22 06:22:04;;;;;;;1.63;0.40;;;;;;;11.55;100.00;96275.66;5098603;28;20757;-87
2020/12/22 06:24:30;;;;;;;0.93;0.53;;;;;;;11.53;100.00;96288.25;5098084;28;20419;-87
2020/12/22 06:27:00;;;;;;;1.00;0.50;;;;;;;11.55;100.00;96283.03;5100737;28;20512;-86
2020/12/22 06:29:27;;;;;;;1.03;0.30;;;;;;;11.58;100.00;96282.66;5104446;28;20426;-87
2020/12/22 06:31:54;;;;;;;0.60;0.40;;;;;;;11.61;100.00;96284.28;5098190;28;20569;-86
2020/12/22 06:34:24;;;;;;;0.73;0.40;;;;;;;11.55;100.00;96275.66;5097971;28;20475;-86
2020/12/22 06:37:00;;;;;;;1.17;0.77;;;;;;;11.66;100.00;96274.50;5099216;28;20429;-87
2020/12/22 06:39:44;;;;;;;0.60;0.40;;;;;;;11.59;100.00;96278.69;5098383;28;20444;-88
2020/12/22 06:42:31;;;;;;;0.57;0.47;;;;;;;11.59;100.00;96269.88;5098860;28;20495;-88
2020/12/22 06:45:23;;;;;;;1.13;0.30;;;;;;;11.69;100.00;96274.13;5098776;28;20446;-86
2020/12/22 06:47:49;;;;;;;1.27;0.40;;;;;;;11.72;100.00;96278.47;5099513;28;20409;-87
2020/12/22 06:50:40;;;;;;;0.50;0.40;;;;;;;11.64;100.00;96285.88;5097880;28;20776;-88
2020/12/22 06:53:28;;;;;;;1.00;0.40;;;;;;;11.72;100.00;96285.84;5098191;28;20420;-86
2020/12/22 06:55:54;;;;;;;0.60;0.40;;;;;;;11.77;100.00;96290.34;5098297;28;20456;-87
2020/12/22 06:58:37;;;;;;;2.43;0.40;;;;;;;11.80;100.00;96279.16;5100094;28;20449;-88
2020/12/22 07:01:29;;;;;;;0.70;0.33;;;;;;;11.82;100.00;96287.44;5098382;28;20458;-88
2020/12/22 07:04:12;;;;;;;0.80;0.40;;;;;;;11.78;100.00;96286.34;5097487;28;20429;-88
2020/12/22 07:07:02;;;;;;;0.50;0.40;;;;;;;11.81;100.00;96285.25;5097990;28;20953;-88
2020/12/22 07:09:31;;;;;;;1.10;0.40;;;;;;;11.84;100.00;96292.25;5095226;28;20491;-89
2020/12/22 07:12:10;;;;;;;0.97;0.50;;;;;;;11.88;100.00;96283.78;5099875;28;20552;-88
2020/12/22 07:14:39;;;;;;;0.67;0.30;;;;;;;11.85;100.00;96276.78;5099965;28;20415;-88
2020/12/22 07:17:06;;;;;;;0.80;0.60;;;;;;;11.79;100.00;96274.28;5098814;28;20432;-87
2020/12/22 07:19:33;;;;;;;0.50;0.40;;;;;;;11.85;99.77;96279.47;5097751;28;20964;-87
2020/12/22 07:22:02;;;;;;;1.70;0.67;;;;;;;11.86;99.64;96286.31;5097791;28;20916;-88
2020/12/22 07:24:30;;;;;;;0.40;0.30;;;;;;;11.96;99.33;96287.88;5097815;28;20875;-88
2020/12/22 07:26:57;;;;;;;3.03;0.50;;;;;;;12.00;98.90;96301.72;5097790;28;20498;-88
2020/12/22 07:29:24;;;;;;;0.40;0.30;;;;;;;12.04;98.26;96288.53;5097595;28;20508;-88
2020/12/22 07:31:50;;;;;;;0.40;0.30;;;;;;;12.08;97.99;96305.13;5097274;28;20460;-88
2020/12/22 07:34:17;;;;;;;0.53;0.40;;;;;;;12.12;97.70;96318.94;5097583;28;20955;-89
2020/12/22 07:36:44;;;;;;;0.50;0.40;;;;;;;12.08;97.77;96305.13;5097734;28;20450;-88
2020/12/22 07:39:19;;;;;;;0.50;0.40;;;;;;;12.13;97.55;96309.56;5097691;28;20451;-88
2020/12/22 07:41:48;;;;;;;0.87;0.50;;;;;;;12.18;97.12;96305.22;5098853;28;20450;-88
2020/12/22 07:44:15;;;;;;;1.10;0.50;;;;;;;12.20;96.64;96316.22;5098145;28;20448;-89
2020/12/22 07:46:43;;;;;;;1.80;0.60;;;;;;;12.23;96.82;96328.63;5099464;28;20414;-89
2020/12/22 07:49:11;;;;;;;0.40;0.30;;;;;;;12.29;96.10;96310.91;5097678;28;20449;-88
2020/12/22 07:51:40;;;;;;;1.00;0.37;;;;;;;12.25;96.43;96315.97;5097729;28;20563;-89
2020/12/22 07:54:07;;;;;;;0.70;0.47;;;;;;;12.29;95.96;96308.19;5098304;28;20466;-91
2020/12/22 07:56:35;;;;;;;0.70;0.30;;;;;;;12.27;96.12;96318.16;5099879;28;20440;-89
2020/12/22 07:59:07;;;;;;;0.77;0.50;;;;;;;12.30;96.09;96327.88;5099146;28;20440;-89
2020/12/22 08:01:44;;;;;;;0.80;0.37;;;;;;;12.27;96.32;96323.56;5098747;28;20491;-90
2020/12/22 08:04:15;;;;;;;0.77;0.40;;;;;;;12.31;96.02;96327.31;5098041;28;20424;-86
2020/12/22 08:06:42;;;;;;;1.57;0.43;;;;;;;12.32;96.10;96331.44;5097334;28;20547;-85
2020/12/22 08:09:09;;;;;;;3.57;0.40;;;;;;;12.26;96.20;96324.81;5096586;28;20444;-86
2020/12/22 08:11:36;;;;;;;1.23;0.40;;;;;;;12.38;95.85;96327.78;5096597;28;20943;-86
2020/12/22 08:14:06;;;;;;;0.60;0.40;;;;;;;12.39;95.40;96340.06;5097405;28;20509;-87
2020/12/22 08:16:35;;;;;;;0.80;0.37;;;;;;;12.37;95.70;96332.50;5096902;28;20516;-86
2020/12/22 08:19:05;;;;;;;0.53;0.53;;;;;;;12.35;95.77;96341.16;5095447;28;20448;-86
2020/12/22 08:21:34;;;;;;;1.33;0.30;;;;;;;12.41;95.59;96345.63;5097358;28;20500;-86
2020/12/22 08:24:02;;;;;;;0.60;0.53;;;;;;;12.41;95.57;96337.50;5096260;28;20800;-85
2020/12/22 08:26:29;;;;;;;0.50;0.30;;;;;;;12.45;95.31;96337.84;5096622;28;20437;-84
2020/12/22 08:28:55;;;;;;;0.50;0.30;;;;;;;12.44;95.24;96342.53;5096229;28;20459;-85
2020/12/22 08:31:25;;;;;;;0.63;0.50;;;;;;;12.52;94.93;96343.22;5096368;28;20992;-85
2020/12/22 08:33:54;;;;;;;0.77;0.40;;;;;;;12.52;95.10;96345.19;5096315;28;20448;-85
2020/12/22 08:36:22;;;;;;;0.80;0.50;;;;;;;12.50;95.39;96336.94;5097581;28;20866;-84
2020/12/22 08:38:48;;;;;;;0.90;0.40;;;;;;;12.53;95.69;96341.22;5096008;28;20441;-83
2020/12/22 08:41:18;;;;;;;0.50;0.37;;;;;;;12.53;95.07;96339.22;5096554;28;20459;-84
2020/12/22 08:43:49;;;;;;;0.50;0.40;;;;;;;12.49;95.39;96359.84;5098074;28;20400;-85
2020/12/22 08:46:16;;;;;;;0.40;0.33;;;;;;;12.54;95.38;96356.19;5098076;28;20506;-82
2020/12/22 08:48:44;;;;;;;1.17;0.40;;;;;;;12.49;95.31;96360.56;5097400;28;20451;-84
2020/12/22 08:51:10;;;;;;;0.80;0.40;;;;;;;12.54;95.22;96367.00;5098387;28;20517;-85
2020/12/22 08:53:38;;;;;;;1.63;0.43;;;;;;;12.60;94.66;96348.56;5109068;28;20455;-80
2020/12/22 08:56:11;;;;;;;0.50;0.40;;;;;;;12.61;94.92;96356.13;5106727;28;20804;-82
2020/12/22 08:58:54;;;;;;;1.10;0.40;;;;;;;12.64;94.92;96376.69;5105250;28;20444;-82
2020/12/22 09:01:23;;;;;;;3.67;2.70;;;;;;;12.66;94.80;96382.25;5101801;28;20472;-85
2020/12/22 09:03:59;;;;;;;0.57;0.40;;;;;;;12.73;94.42;96389.63;5098492;28;20504;-84
2020/12/22 09:06:35;;;;;;;0.60;0.40;;;;;;;12.70;94.71;96382.59;5112327;28;20405;-88
2020/12/22 09:09:04;;;;;;;0.93;0.40;;;;;;;12.73;94.72;96392.31;5118331;28;20400;-86
2020/12/22 09:11:30;;;;;;;2.73;0.77;;;;;;;12.74;95.19;96395.75;5118249;28;20435;-87
2020/12/22 09:14:09;;;;;;;0.40;0.40;;;;;;;12.80;95.09;96388.13;5114888;28;20411;-84
2020/12/22 09:16:55;;;;;;;1.67;0.40;;;;;;;12.76;95.34;96388.50;5111011;28;20520;-85
2020/12/22 09:19:30;;;;;;;0.97;0.40;;;;;;;12.77;95.98;96391.94;5109609;28;20429;-84
2020/12/22 09:21:59;;;;;;;2.37;0.70;;;;;;;12.77;96.61;96395.38;5098397;28;20490;-86
2020/12/22 09:24:25;;;;;;;1.40;0.50;;;;;;;12.74;96.45;96396.47;5095144;28;20449;-85
2020/12/22 09:26:55;;;;;;;0.80;0.50;;;;;;;12.62;97.51;96397.47;5096693;28;20588;-86
2020/12/22 09:29:22;;;;;;;2.10;1.53;;;;;;;12.68;98.24;96390.56;5097793;28;20444;-87
2020/12/22 09:31:49;;;;;;;1.23;0.50;;;;;;;12.61;98.75;96394.03;5099709;28;20487;-86
2020/12/22 09:34:16;;;;;;;0.73;0.40;;;;;;;12.58;99.29;96389.00;5096876;28;20788;-86
2020/12/22 09:36:43;;;;;;;0.50;0.43;;;;;;;12.56;99.47;96392.25;5095746;28;20520;-85
2020/12/22 09:39:09;;;;;;;0.97;0.30;;;;;;;12.57;99.81;96379.44;5095872;28;20483;-85
2020/12/22 09:41:45;;;;;;;0.87;0.70;;;;;;;12.53;99.65;96382.53;5095316;28;20963;-85
2020/12/22 09:44:12;;;;;;;1.23;0.60;;;;;;;12.54;99.84;96389.38;5095893;28;20447;-86
2020/12/22 09:46:38;;;;;;;1.17;0.70;;;;;;;12.48;99.99;96394.31;5095889;28;20445;-84
2020/12/22 09:49:05;;;;;;;1.77;1.00;;;;;;;12.50;100.00;96389.03;5097273;28;20395;-85
2020/12/22 09:51:31;;;;;;;1.13;0.80;;;;;;;12.53;100.00;96382.53;5095953;28;20451;-83
2020/12/22 09:53:59;;;;;;;0.73;0.37;;;;;;;12.54;100.00;96405.63;5095720;28;20432;-83
2020/12/22 09:56:25;;;;;;;0.70;0.43;;;;;;;12.54;100.00;96397.50;5096510;28;20441;-87
2020/12/22 09:58:52;;;;;;;0.80;0.60;;;;;;;12.53;100.00;96395.38;5097820;28;20820;-88
2020/12/22 10:01:22;;;;;;;1.10;0.60;;;;;;;12.50;100.00;96396.47;5099638;28;20491;-85
2020/12/22 10:03:49;;;;;;;2.43;0.60;;;;;;;12.54;100.00;96394.06;5098129;28;20448;-83
2020/12/22 10:06:17;;;;;;;1.57;0.50;;;;;;;12.50;100.00;96394.47;5097736;28;20810;-84
2020/12/22 10:08:44;;;;;;;2.00;0.47;;;;;;;12.54;100.00;96392.09;5098042;28;20524;-85
2020/12/22 10:11:11;;;;;;;0.63;0.40;;;;;;;12.65;100.00;96386.25;5096415;28;20435;-87
2020/12/22 10:13:38;;;;;;;0.80;0.60;;;;;;;12.70;99.43;96388.00;5095227;28;20445;-87
2020/12/22 10:16:12;;;;;;;2.33;0.77;;;;;;;12.71;98.97;96394.16;5094914;28;20812;-86
2020/12/22 10:18:39;;;;;;;1.17;0.70;;;;;;;12.73;98.62;96397.00;5097493;28;20766;-86
2020/12/22 10:21:07;;;;;;;1.00;0.70;;;;;;;12.83;98.19;96389.72;5096069;28;20539;-87
2020/12/22 10:23:35;;;;;;;1.70;0.60;;;;;;;12.83;97.64;96393.16;5095172;28;20553;-87
2020/12/22 10:26:05;;;;;;;1.43;0.50;;;;;;;12.83;97.61;96395.84;5095738;28;20481;-88
2020/12/22 10:28:34;;;;;;;2.03;0.60;;;;;;;12.86;97.24;96400.16;5096999;28;20504;-87
2020/12/22 10:31:01;;;;;;;3.60;0.73;;;;;;;13.01;96.90;96398.59;5097879;28;20517;-86
2020/12/22 10:33:28;;;;;;;2.20;0.60;;;;;;;13.00;96.49;96395.16;5098730;28;20433;-86
2020/12/22 10:35:55;;;;;;;1.03;0.40;;;;;;;13.08;96.09;96400.50;5098769;28;20427;-86
2020/12/22 10:38:22;;;;;;;0.80;0.80;;;;;;;13.09;95.52;96402.00;5099689;28;20455;-86
2020/12/22 10:40:50;;;;;;;1.00;0.63;;;;;;;13.10;94.99;96398.72;5098455;28;20448;-87
2020/12/22 10:43:16;;;;;;;0.70;0.40;;;;;;;13.06;94.57;96392.94;5098078;28;20469;-87
2020/12/22 10:45:44;;;;;;;1.63;0.67;;;;;;;13.09;94.73;96396.56;5098399;28;20437;-87
2020/12/22 10:48:10;;;;;;;1.17;0.50;;;;;;;13.10;94.83;96404.13;5099138;28;20457;-86
2020/12/22 10:50:40;;;;;;;0.60;0.57;;;;;;;13.12;94.49;96403.59;5098482;28;20474;-87
2020/12/22 10:53:08;;;;;;;1.70;0.60;;;;;;;13.09;94.84;96397.28;5099768;28;20424;-88
2020/12/22 10:55:35;;;;;;;1.90;0.60;;;;;;;13.11;94.74;96396.72;5100230;28;20523;-88
2020/12/22 10:58:02;;;;;;;0.70;0.50;;;;;;;13.09;94.61;96397.28;5099910;28;20907;-87
2020/12/22 11:00:29;;;;;;;1.30;0.67;;;;;;;13.11;94.61;96394.72;5100132;28;20605;-86
2020/12/22 11:03:00;;;;;;;1.10;0.53;;;;;;;13.10;94.13;96406.13;5099846;28;20484;-87
2020/12/22 11:08:11;;;;;;;0.70;0.47;;;;;;;13.13;94.32;96407.72;5098178;28;20424;-87
2020/12/22 11:10:37;;;;;;;2.97;1.67;;;;;;;13.18;94.18;96399.38;5098436;28;20472;-86
2020/12/22 11:13:03;;;;;;;1.40;0.60;;;;;;;13.11;94.52;96415.69;5100037;28;20419;-86
2020/12/22 11:15:30;;;;;;;3.70;0.90;;;;;;;13.18;94.50;96412.19;5099554;28;20445;-87
2020/12/22 11:17:58;;;;;;;1.70;0.60;;;;;;;13.23;94.00;96416.66;5099724;28;20516;-87
2020/12/22 11:20:24;;;;;;;1.07;0.43;;;;;;;13.24;94.04;96413.41;5098541;28;20525;-88
2020/12/22 11:22:50;;;;;;;0.87;0.50;;;;;;;13.22;94.12;96417.91;5099826;28;20560;-89
2020/12/22 11:25:17;;;;;;;2.00;0.93;;;;;;;13.23;93.95;96420.09;5105639;28;20968;-88
2020/12/22 11:27:48;;;;;;;1.20;0.60;;;;;;;13.24;94.05;96415.38;5118576;28;20554;-90
2020/12/22 11:30:14;;;;;;;2.67;0.70;;;;;;;13.30;94.13;96418.59;5118403;28;20492;-86
2020/12/22 11:32:41;;;;;;;1.23;0.60;;;;;;;13.32;93.82;96418.72;5118969;28;20433;-88
2020/12/22 11:35:09;;;;;;;2.43;0.60;;;;;;;13.27;93.73;96404.16;5107824;28;20506;-87
2020/12/22 11:37:36;;;;;;;1.47;0.60;;;;;;;13.31;93.96;96398.34;5097135;28;20444;-87